Home

PKWA Terminal Aerodrome Forecast (TAF)small logo


TAF provided by NWS Guam
2014/11/26 06:41
TAF PKWA 260534Z 2606/2706 07018G24KT P6SM VCSH SCT018 SCT050 BKN100

      



Site Map | Contact Us | Copyright © 2007 Atmospheric Technology Services Company. All rights reserved.